createdAt,value
2023-02-27T00:00:52.852Z,2.97
2023-02-27T00:03:19.304Z,5.47
2023-02-27T00:05:45.702Z,3.50
2023-02-27T00:08:12.134Z,4.82
2023-02-27T00:10:38.532Z,5.20
2023-02-27T00:13:05.016Z,3.00
2023-02-27T00:15:31.398Z,4.05
2023-02-27T00:17:58.650Z,4.00
2023-02-27T00:20:26.240Z,5.30
2023-02-27T00:22:52.647Z,2.67
2023-02-27T00:25:19.119Z,5.43
2023-02-27T00:27:45.534Z,3.10
2023-02-27T00:30:13.270Z,2.17
2023-02-27T00:32:39.888Z,3.35
2023-02-27T00:35:07.205Z,5.18
2023-02-27T00:37:33.692Z,2.97
2023-02-27T00:40:00.341Z,2.90
2023-02-27T00:42:26.904Z,4.13
2023-02-27T00:44:53.299Z,3.92
2023-02-27T00:47:19.736Z,4.57
2023-02-27T00:49:46.126Z,2.88
2023-02-27T00:52:12.504Z,5.25
2023-02-27T00:54:38.905Z,3.63
2023-02-27T00:57:05.321Z,2.97
2023-02-27T00:59:31.732Z,6.45
2023-02-27T01:01:58.131Z,3.85
2023-02-27T01:04:24.529Z,2.45
2023-02-27T01:06:50.914Z,3.00
2023-02-27T01:09:17.331Z,3.15
2023-02-27T01:11:43.722Z,3.22
2023-02-27T01:14:10.129Z,4.15
2023-02-27T01:16:36.564Z,5.05
2023-02-27T01:19:03.168Z,5.30
2023-02-27T01:21:29.590Z,7.43
2023-02-27T01:23:56.007Z,4.10
2023-02-27T01:26:22.392Z,3.75
2023-02-27T01:28:48.819Z,3.80
2023-02-27T01:31:15.471Z,5.45
2023-02-27T01:33:41.860Z,3.20
2023-02-27T01:36:08.639Z,3.03
2023-02-27T01:38:35.173Z,4.50
2023-02-27T01:41:01.607Z,3.42
2023-02-27T01:43:28.137Z,3.45
2023-02-27T01:45:54.601Z,7.45
2023-02-27T01:48:35.511Z,3.03
2023-02-27T01:51:08.132Z,6.25
2023-02-27T01:53:35.748Z,2.55
2023-02-27T01:56:15.045Z,2.67
2023-02-27T01:58:42.225Z,4.78
2023-02-27T02:01:08.674Z,3.33
2023-02-27T02:03:59.228Z,5.07
2023-02-27T02:06:25.638Z,3.05
2023-02-27T02:08:52.108Z,3.33
2023-02-27T02:11:19.047Z,2.90
2023-02-27T02:13:45.923Z,4.50
2023-02-27T02:16:30.306Z,2.78
2023-02-27T02:19:14.375Z,6.15
2023-02-27T02:22:12.332Z,5.50
2023-02-27T02:25:16.177Z,3.72
2023-02-27T02:27:51.302Z,2.13
2023-02-27T02:30:23.742Z,3.70
2023-02-27T02:33:08.768Z,2.25
2023-02-27T02:36:11.034Z,2.33
2023-02-27T02:38:56.191Z,3.83
2023-02-27T02:41:32.007Z,4.28
2023-02-27T02:44:13.453Z,5.07
2023-02-27T02:47:01.517Z,4.05
2023-02-27T02:49:27.796Z,4.25
2023-02-27T02:52:17.201Z,3.58
2023-02-27T02:54:52.072Z,2.70
2023-02-27T02:57:25.112Z,2.85
2023-02-27T02:59:54.338Z,3.88
2023-02-27T03:02:23.101Z,4.70
2023-02-27T03:05:21.876Z,3.15
2023-02-27T03:07:53.125Z,3.70
2023-02-27T03:10:21.415Z,4.10
2023-02-27T03:12:55.561Z,3.15
2023-02-27T03:15:25.077Z,4.40
2023-02-27T03:18:20.983Z,2.85
2023-02-27T03:20:50.067Z,4.13
2023-02-27T03:23:29.649Z,2.88
2023-02-27T03:25:58.176Z,3.40
2023-02-27T03:28:26.842Z,3.55
2023-02-27T03:30:55.940Z,2.65
2023-02-27T03:33:33.086Z,3.05
2023-02-27T03:36:07.530Z,3.53
2023-02-27T03:38:59.164Z,5.28
2023-02-27T03:41:35.772Z,3.65
2023-02-27T03:44:33.666Z,2.03
2023-02-27T03:47:00.122Z,7.88
2023-02-27T03:49:26.514Z,2.17
2023-02-27T03:51:53.128Z,4.72
2023-02-27T03:54:22.109Z,3.75
2023-02-27T03:57:07.889Z,3.20
2023-02-27T03:59:35.105Z,4.75
2023-02-27T04:02:01.950Z,5.78
2023-02-27T04:04:29.866Z,3.08
2023-02-27T04:07:03.358Z,2.95
2023-02-27T04:09:51.495Z,4.60
2023-02-27T04:12:31.454Z,2.60
2023-02-27T04:15:23.535Z,4.25
2023-02-27T04:18:23.180Z,4.75
2023-02-27T04:26:17.487Z,2.42
2023-02-27T04:28:59.030Z,3.75
2023-02-27T04:31:47.440Z,9.60
2023-02-27T04:34:32.047Z,7.25
2023-02-27T04:37:08.676Z,4.32
2023-02-27T04:39:38.577Z,5.22
2023-02-27T04:42:15.988Z,5.30
2023-02-27T04:44:42.388Z,4.20
2023-02-27T04:47:09.529Z,4.97
2023-02-27T04:49:47.518Z,8.85
2023-02-27T04:52:16.673Z,5.40
2023-02-27T04:55:26.186Z,2.78
2023-02-27T04:58:19.029Z,4.03
2023-02-27T05:00:47.659Z,5.32
2023-02-27T05:03:17.550Z,4.88
2023-02-27T05:05:43.962Z,3.70
2023-02-27T05:08:16.036Z,4.72
2023-02-27T05:10:47.087Z,4.18
2023-02-27T05:13:16.578Z,6.32
2023-02-27T05:15:44.082Z,5.03
2023-02-27T05:18:12.059Z,4.32
2023-02-27T05:20:59.916Z,4.90
2023-02-27T05:24:04.768Z,3.60
2023-02-27T05:26:59.550Z,4.28
2023-02-27T05:29:43.705Z,3.58
2023-02-27T05:32:33.827Z,5.35
2023-02-27T05:35:09.203Z,6.10
2023-02-27T05:38:14.100Z,6.03
2023-02-27T05:40:43.636Z,5.88
2023-02-27T05:43:18.353Z,3.50
2023-02-27T05:45:46.102Z,3.05
2023-02-27T05:48:14.806Z,4.45
2023-02-27T05:50:41.269Z,5.57
2023-02-27T05:53:13.480Z,7.10
2023-02-27T05:55:53.428Z,4.53
2023-02-27T05:58:30.821Z,5.25
2023-02-27T06:01:01.598Z,3.72
2023-02-27T06:03:28.471Z,4.68
2023-02-27T06:05:55.472Z,6.32
2023-02-27T06:08:22.079Z,4.65
2023-02-27T06:10:48.508Z,3.45
2023-02-27T06:13:14.910Z,6.25
2023-02-27T06:15:41.349Z,4.95
2023-02-27T06:18:07.753Z,3.88
2023-02-27T06:20:34.157Z,4.93
2023-02-27T06:23:00.560Z,7.55
2023-02-27T06:25:27.014Z,4.35
2023-02-27T06:27:53.617Z,5.25
2023-02-27T06:30:20.221Z,6.68
2023-02-27T06:32:46.649Z,5.43
2023-02-27T06:35:13.085Z,3.88
2023-02-27T06:37:39.612Z,6.32
2023-02-27T06:40:06.960Z,6.10
2023-02-27T06:42:33.418Z,4.32
2023-02-27T06:44:59.856Z,3.47
2023-02-27T06:47:26.337Z,6.68
2023-02-27T06:49:52.732Z,4.65
2023-02-27T06:52:19.145Z,6.72
2023-02-27T06:54:45.550Z,5.82
2023-02-27T06:57:11.955Z,5.50
2023-02-27T06:59:38.335Z,6.90
2023-02-27T07:02:04.736Z,6.80
2023-02-27T07:04:31.168Z,6.18
2023-02-27T07:07:35.850Z,4.70
2023-02-27T07:09:43.962Z,5.97
2023-02-27T07:12:10.360Z,6.88
2023-02-27T07:14:36.772Z,4.50
2023-02-27T07:17:03.181Z,7.72
2023-02-27T07:19:29.682Z,7.55
2023-02-27T07:21:56.105Z,3.05
2023-02-27T07:24:22.547Z,5.22
2023-02-27T07:26:48.949Z,5.05
2023-02-27T07:29:15.414Z,5.13
2023-02-27T07:31:41.887Z,6.53
2023-02-27T07:34:08.471Z,5.57
2023-02-27T07:36:34.860Z,6.25
2023-02-27T07:39:01.641Z,4.38
2023-02-27T07:41:30.981Z,7.07
2023-02-27T07:43:57.862Z,5.95
2023-02-27T07:46:24.277Z,6.22
2023-02-27T07:48:50.719Z,6.75
2023-02-27T07:51:17.111Z,6.90
2023-02-27T07:53:43.889Z,10.35
2023-02-27T07:56:10.415Z,7.55
2023-02-27T07:58:36.856Z,6.55
2023-02-27T08:01:03.281Z,5.55
2023-02-27T08:03:29.688Z,7.85
2023-02-27T08:05:56.166Z,5.50
2023-02-27T08:08:22.566Z,6.03
2023-02-27T08:10:49.760Z,6.30
2023-02-27T08:13:20.601Z,9.45
2023-02-27T08:15:47.186Z,5.03
2023-02-27T08:18:13.636Z,6.60
2023-02-27T08:20:40.055Z,4.78
2023-02-27T08:23:06.462Z,6.57
2023-02-27T08:25:33.029Z,4.65
2023-02-27T08:27:59.425Z,6.00
2023-02-27T08:30:25.840Z,6.07
2023-02-27T08:32:52.431Z,4.72
2023-02-27T08:35:18.928Z,6.93
2023-02-27T08:37:45.335Z,8.07
2023-02-27T08:40:12.050Z,5.57
2023-02-27T08:42:38.541Z,5.97
2023-02-27T08:45:05.302Z,4.97
2023-02-27T08:47:31.738Z,4.63
2023-02-27T08:49:58.179Z,7.93
2023-02-27T08:52:25.066Z,7.13
2023-02-27T08:54:51.593Z,5.72
2023-02-27T08:57:17.992Z,6.13
2023-02-27T08:59:44.437Z,5.35
2023-02-27T09:02:11.337Z,6.53
2023-02-27T09:04:37.874Z,5.13
2023-02-27T09:07:04.347Z,9.45
2023-02-27T09:09:30.758Z,4.03
2023-02-27T09:11:57.233Z,8.07
2023-02-27T09:14:23.862Z,4.93
2023-02-27T09:16:50.280Z,5.93
2023-02-27T09:19:16.788Z,5.93
2023-02-27T09:21:43.220Z,3.75
2023-02-27T09:24:19.291Z,3.00
2023-02-27T09:26:46.865Z,4.70
2023-02-27T09:29:13.436Z,4.82
2023-02-27T09:31:39.917Z,3.50
2023-02-27T09:34:06.326Z,4.38
2023-02-27T09:36:32.827Z,4.13
2023-02-27T09:38:59.402Z,5.47
2023-02-27T09:41:57.387Z,4.57
2023-02-27T09:44:52.219Z,2.75
2023-02-27T09:47:43.481Z,3.28
2023-02-27T09:50:12.904Z,6.03
2023-02-27T09:52:39.339Z,3.15
2023-02-27T09:55:10.808Z,7.47
2023-02-27T09:57:44.392Z,3.45
2023-02-27T10:00:21.449Z,1.58
2023-02-27T10:03:09.560Z,4.25
2023-02-27T10:06:11.259Z,3.50
2023-02-27T10:08:43.541Z,0.95
2023-02-27T10:11:14.993Z,1.63
2023-02-27T10:13:50.117Z,2.78
2023-02-27T10:16:18.920Z,1.52
2023-02-27T10:18:53.537Z,1.27
2023-02-27T10:21:22.435Z,3.17
2023-02-27T10:24:01.891Z,1.08
2023-02-27T10:26:29.857Z,2.75
2023-02-27T10:29:01.800Z,2.35
2023-02-27T10:31:31.601Z,2.85
2023-02-27T10:36:33.658Z,2.10
2023-02-27T10:39:04.790Z,1.83
2023-02-27T10:41:31.630Z,2.10
2023-02-27T10:43:58.736Z,4.60
2023-02-27T10:46:29.835Z,2.25
2023-02-27T10:48:58.918Z,2.80
2023-02-27T10:51:27.600Z,3.17
2023-02-27T10:54:19.076Z,2.20
2023-02-27T10:56:48.218Z,3.03
2023-02-27T10:59:27.894Z,3.00
2023-02-27T11:01:59.113Z,2.60
2023-02-27T11:04:31.640Z,4.68
2023-02-27T11:06:58.402Z,2.72
2023-02-27T11:09:29.589Z,2.38
2023-02-27T11:11:57.455Z,2.53
2023-02-27T11:14:32.224Z,2.65
2023-02-27T11:17:02.194Z,2.45
2023-02-27T11:19:36.402Z,2.50
2023-02-27T11:22:19.886Z,2.38
2023-02-27T11:24:46.954Z,1.65
2023-02-27T11:27:31.687Z,3.28
2023-02-27T11:30:02.608Z,4.30
2023-02-27T11:32:47.588Z,1.58
2023-02-27T11:35:26.630Z,1.25
2023-02-27T11:37:54.173Z,3.17
2023-02-27T11:40:21.244Z,2.13
2023-02-27T11:43:11.583Z,3.15
2023-02-27T11:46:04.248Z,1.55
2023-02-27T11:48:40.019Z,2.42
2023-02-27T11:51:18.611Z,2.05
2023-02-27T11:54:15.438Z,1.45
2023-02-27T11:56:46.733Z,5.43
2023-02-27T11:59:32.930Z,3.53
2023-02-27T12:02:39.266Z,3.78
2023-02-27T12:05:26.048Z,2.53
2023-02-27T12:08:16.773Z,1.63
2023-02-27T12:11:15.137Z,2.60
2023-02-27T12:13:43.729Z,2.20
2023-02-27T12:16:40.300Z,4.78
2023-02-27T12:19:16.227Z,2.47
2023-02-27T12:22:22.386Z,2.67
2023-02-27T12:24:54.806Z,3.83
2023-02-27T12:27:22.318Z,1.83
2023-02-27T12:29:58.446Z,2.83
2023-02-27T12:32:27.511Z,1.88
2023-02-27T12:34:59.378Z,3.28
2023-02-27T12:37:29.473Z,2.90
2023-02-27T12:39:57.996Z,1.63
2023-02-27T12:42:42.346Z,4.50
2023-02-27T12:45:47.909Z,3.78
2023-02-27T12:48:23.510Z,2.10
2023-02-27T12:50:58.269Z,1.65
2023-02-27T12:53:33.705Z,2.85
2023-02-27T12:56:18.957Z,3.13
2023-02-27T12:58:51.941Z,3.67
2023-02-27T13:01:24.331Z,3.53
2023-02-27T13:04:01.788Z,4.75
2023-02-27T13:06:33.145Z,4.68
2023-02-27T13:09:08.635Z,3.38
2023-02-27T13:12:00.929Z,2.90
2023-02-27T13:14:57.777Z,2.88
2023-02-27T13:17:35.098Z,2.45
2023-02-27T13:20:25.989Z,2.05
2023-02-27T13:23:10.963Z,1.95
2023-02-27T13:25:37.919Z,2.58
2023-02-27T13:28:08.689Z,0.93
2023-02-27T13:30:47.145Z,2.25
2023-02-27T13:33:16.569Z,1.70
2023-02-27T13:35:56.574Z,2.47
2023-02-27T13:38:42.600Z,0.70
2023-02-27T13:41:21.117Z,2.10
2023-02-27T13:43:52.407Z,1.25
2023-02-27T13:46:22.497Z,2.08
2023-02-27T13:48:53.301Z,2.72
2023-02-27T13:51:37.925Z,1.65
2023-02-27T13:54:08.421Z,1.40
2023-02-27T13:56:34.806Z,2.03
2023-02-27T13:59:12.306Z,1.52
2023-02-27T14:01:38.771Z,1.88
2023-02-27T14:04:06.666Z,0.60
2023-02-27T14:06:33.078Z,1.83
2023-02-27T14:09:14.077Z,1.00
2023-02-27T14:11:41.179Z,2.33
2023-02-27T14:14:09.461Z,1.25
2023-02-27T14:16:38.670Z,1.50
2023-02-27T14:19:17.255Z,0.85
2023-02-27T14:21:54.870Z,1.48
2023-02-27T14:24:49.649Z,3.80
2023-02-27T14:27:25.047Z,1.73
2023-02-27T14:29:53.045Z,0.82
2023-02-27T14:32:21.564Z,1.38
2023-02-27T14:34:50.817Z,2.03
2023-02-27T14:37:19.135Z,2.50
2023-02-27T14:39:47.653Z,0.60
2023-02-27T14:42:37.641Z,1.05
2023-02-27T14:45:04.612Z,1.13
2023-02-27T14:47:35.090Z,1.80
2023-02-27T14:50:02.804Z,2.33
2023-02-27T14:52:30.560Z,2.15
2023-02-27T14:55:37.772Z,3.85
2023-02-27T14:58:07.109Z,4.07
2023-02-27T15:00:42.725Z,1.40
2023-02-27T15:03:16.591Z,2.08
2023-02-27T15:05:43.184Z,2.15
2023-02-27T15:08:17.930Z,1.58
2023-02-27T15:10:44.532Z,1.17
2023-02-27T15:13:24.157Z,1.38
2023-02-27T15:15:50.810Z,2.85
2023-02-27T15:18:17.405Z,1.65
2023-02-27T15:20:43.842Z,1.67
2023-02-27T15:23:28.713Z,2.85
2023-02-27T15:25:58.273Z,1.48
2023-02-27T15:28:37.184Z,1.95
2023-02-27T15:31:03.701Z,1.77
2023-02-27T15:33:31.714Z,3.30
2023-02-27T15:35:58.472Z,1.80
2023-02-27T15:38:29.665Z,1.35
2023-02-27T15:40:56.474Z,2.13
2023-02-27T15:43:22.913Z,2.83
2023-02-27T15:45:49.349Z,2.05
2023-02-27T15:48:15.889Z,4.07
2023-02-27T15:50:43.592Z,3.15
2023-02-27T15:53:14.008Z,2.10
2023-02-27T15:55:51.776Z,0.95
2023-02-27T15:58:27.539Z,2.25
2023-02-27T16:03:51.271Z,1.55
2023-02-27T16:06:30.926Z,2.97
2023-02-27T16:08:59.385Z,3.05
2023-02-27T16:11:33.228Z,4.63
2023-02-27T16:13:59.832Z,3.08
2023-02-27T16:16:31.542Z,1.98
2023-02-27T16:18:59.199Z,3.90
2023-02-27T16:21:26.775Z,3.30
2023-02-27T16:23:57.323Z,3.60
2023-02-27T16:26:28.804Z,4.60
2023-02-27T16:29:17.050Z,3.92
2023-02-27T16:31:48.470Z,5.35
2023-02-27T16:34:44.528Z,2.47
2023-02-27T16:37:23.011Z,3.35
2023-02-27T16:39:52.328Z,4.53
2023-02-27T16:42:18.837Z,4.45
2023-02-27T16:44:45.233Z,1.90
2023-02-27T16:47:11.714Z,3.65
2023-02-27T16:49:38.255Z,2.83
2023-02-27T16:52:04.661Z,5.43
2023-02-27T16:54:31.080Z,4.65
2023-02-27T16:56:57.500Z,4.15
2023-02-27T16:59:42.043Z,3.33
2023-02-27T17:02:14.282Z,2.85
2023-02-27T17:04:41.264Z,5.90
2023-02-27T17:07:12.161Z,4.95
2023-02-27T17:09:38.582Z,5.70
2023-02-27T17:12:05.366Z,2.78
2023-02-27T17:14:31.790Z,3.17
2023-02-27T17:17:01.282Z,4.35
2023-02-27T17:19:27.722Z,6.40
2023-02-27T17:21:54.209Z,3.25
2023-02-27T17:24:23.089Z,4.25
2023-02-27T17:26:51.544Z,4.85
2023-02-27T17:29:18.912Z,3.20
2023-02-27T17:31:45.360Z,6.82
2023-02-27T17:34:11.764Z,5.40
2023-02-27T17:36:38.185Z,5.60
2023-02-27T17:39:04.626Z,7.80
2023-02-27T17:41:31.341Z,9.05
2023-02-27T17:43:58.142Z,5.97
2023-02-27T17:46:25.300Z,4.13
2023-02-27T17:48:51.931Z,6.25
2023-02-27T17:51:18.710Z,4.00
2023-02-27T17:53:49.683Z,4.35
2023-02-27T17:56:16.083Z,4.72
2023-02-27T17:58:42.467Z,6.88
2023-02-27T18:01:10.855Z,6.40
2023-02-27T18:03:37.588Z,4.18
2023-02-27T18:06:04.691Z,5.28
2023-02-27T18:08:31.116Z,5.43
2023-02-27T18:10:57.588Z,7.45
2023-02-27T18:13:24.213Z,6.63
2023-02-27T18:15:50.967Z,7.25
2023-02-27T18:18:18.077Z,7.47
2023-02-27T18:20:44.795Z,10.13
2023-02-27T18:23:11.906Z,11.85
2023-02-27T18:25:39.913Z,18.98
2023-02-27T18:28:06.776Z,22.73
2023-02-27T18:30:37.208Z,27.50
2023-02-27T18:33:03.676Z,37.33
2023-02-27T18:35:30.076Z,43.53
2023-02-27T18:37:56.532Z,35.13
2023-02-27T18:40:22.940Z,30.13
2023-02-27T18:42:50.747Z,24.00
2023-02-27T18:45:17.311Z,18.85
2023-02-27T18:47:43.742Z,19.35
2023-02-27T18:50:10.458Z,21.48
2023-02-27T18:52:37.321Z,22.63
2023-02-27T18:55:04.072Z,22.50
2023-02-27T18:57:30.460Z,20.05
2023-02-27T18:59:56.890Z,21.60
2023-02-27T19:02:23.328Z,21.48
2023-02-27T19:04:51.049Z,21.42
2023-02-27T19:07:17.497Z,15.50
2023-02-27T19:09:44.030Z,17.15
2023-02-27T19:12:10.511Z,11.18
2023-02-27T19:14:40.827Z,10.57
2023-02-27T19:17:09.357Z,10.90
2023-02-27T19:19:35.966Z,11.70
2023-02-27T19:22:02.396Z,12.18
2023-02-27T19:24:28.975Z,13.73
2023-02-27T19:26:55.462Z,13.48
2023-02-27T19:29:30.938Z,12.07
2023-02-27T19:31:57.754Z,11.45
2023-02-27T19:34:24.358Z,10.20
2023-02-27T19:36:52.138Z,8.68
2023-02-27T19:39:18.517Z,7.97
2023-02-27T19:41:45.008Z,10.13
2023-02-27T19:44:11.406Z,17.83
2023-02-27T19:46:39.164Z,18.63
2023-02-27T19:49:07.401Z,19.48
2023-02-27T19:51:36.736Z,15.25
2023-02-27T19:54:03.158Z,10.40
2023-02-27T19:56:30.075Z,12.55
2023-02-27T19:58:56.768Z,14.25
2023-02-27T20:01:32.519Z,11.93
2023-02-27T20:06:26.869Z,8.05
2023-02-27T20:08:53.764Z,5.50
2023-02-27T20:11:20.346Z,7.25
2023-02-27T20:13:47.529Z,5.45
2023-02-27T20:16:16.451Z,7.20
2023-02-27T20:18:45.124Z,12.82
2023-02-27T20:21:16.506Z,10.73
2023-02-27T20:23:44.314Z,10.85
2023-02-27T20:26:25.022Z,10.32
2023-02-27T20:28:52.138Z,7.70
2023-02-27T20:31:19.383Z,8.05
2023-02-27T20:33:45.813Z,6.95
2023-02-27T20:36:15.282Z,6.95
2023-02-27T20:38:42.012Z,6.72
2023-02-27T20:41:13.369Z,6.20
2023-02-27T20:43:40.818Z,9.88
2023-02-27T20:46:18.219Z,11.00
2023-02-27T20:48:45.008Z,7.97
2023-02-27T20:51:15.936Z,11.60
2023-02-27T20:53:43.698Z,5.88
2023-02-27T20:56:10.193Z,6.93
2023-02-27T20:58:36.769Z,6.43
2023-02-27T21:01:03.553Z,6.63
2023-02-27T21:03:38.336Z,3.95
2023-02-27T21:06:05.661Z,7.70
2023-02-27T21:08:32.986Z,5.68
2023-02-27T21:10:59.406Z,4.95
2023-02-27T21:13:26.564Z,4.32
2023-02-27T21:15:53.005Z,3.83
2023-02-27T21:18:22.168Z,5.28
2023-02-27T21:20:48.596Z,6.50
2023-02-27T21:23:15.637Z,3.40
2023-02-27T21:25:42.735Z,8.15
2023-02-27T21:28:09.656Z,4.72
2023-02-27T21:30:36.964Z,3.67
2023-02-27T21:33:04.514Z,5.35
2023-02-27T21:35:31.070Z,3.45
2023-02-27T21:37:57.540Z,5.38
2023-02-27T21:40:23.926Z,3.67
2023-02-27T21:42:50.369Z,3.67
2023-02-27T21:45:16.802Z,3.63
2023-02-27T21:47:43.240Z,5.00
2023-02-27T21:50:10.333Z,2.95
2023-02-27T21:52:36.761Z,5.13
2023-02-27T21:55:03.176Z,6.30
2023-02-27T21:57:29.726Z,2.85
2023-02-27T21:59:56.114Z,3.70
2023-02-27T22:02:22.546Z,4.53
2023-02-27T22:07:15.457Z,4.38
2023-02-27T22:09:41.848Z,4.80
2023-02-27T22:12:08.314Z,3.97
2023-02-27T22:14:34.814Z,3.80
2023-02-27T22:17:01.197Z,3.22
2023-02-27T22:19:27.597Z,3.13
2023-02-27T22:21:54.023Z,3.95
2023-02-27T22:24:20.411Z,3.83
2023-02-27T22:26:47.927Z,2.95
2023-02-27T22:29:14.347Z,3.60
2023-02-27T22:31:40.946Z,6.50
2023-02-27T22:34:10.093Z,3.58
2023-02-27T22:36:36.541Z,4.40
2023-02-27T22:39:03.068Z,6.55
2023-02-27T22:41:31.445Z,5.15
2023-02-27T22:43:58.693Z,3.17
2023-02-27T22:46:32.523Z,3.30
2023-02-27T22:49:03.874Z,2.78
2023-02-27T22:51:30.682Z,2.65
2023-02-27T22:53:58.191Z,2.58
2023-02-27T22:56:24.625Z,2.97
2023-02-27T22:58:51.031Z,4.25
2023-02-27T23:01:19.265Z,2.95
2023-02-27T23:03:46.563Z,2.95
2023-02-27T23:06:14.629Z,2.97
2023-02-27T23:08:41.132Z,3.08
2023-02-27T23:11:09.194Z,2.25
2023-02-27T23:13:35.586Z,3.92
2023-02-27T23:16:02.306Z,3.13
2023-02-27T23:18:28.820Z,3.97
2023-02-27T23:20:55.200Z,2.45
2023-02-27T23:23:21.615Z,3.17
2023-02-27T23:25:48.018Z,1.80
2023-02-27T23:28:14.430Z,4.03
2023-02-27T23:30:40.807Z,3.53
2023-02-27T23:33:07.246Z,1.75
2023-02-27T23:35:33.882Z,3.35
2023-02-27T23:38:00.343Z,2.10
2023-02-27T23:40:26.922Z,2.05
2023-02-27T23:42:53.814Z,2.10
2023-02-27T23:45:20.223Z,1.38
2023-02-27T23:47:46.620Z,2.72
2023-02-27T23:50:13.050Z,4.32
2023-02-27T23:52:39.440Z,3.22
2023-02-27T23:55:06.324Z,2.08
2023-02-27T23:57:32.719Z,1.70
2023-02-27T23:59:59.157Z,3.92
